createdAt,value
2023-02-11T00:00:21.424Z,-2.87
2023-02-11T00:01:17.538Z,-2.87
2023-02-11T00:02:11.755Z,-2.89
2023-02-11T00:03:07.091Z,-2.93
2023-02-11T00:04:02.166Z,-2.96
2023-02-11T00:04:58.203Z,-2.97
2023-02-11T00:05:52.693Z,-2.97
2023-02-11T00:06:49.012Z,-2.95
2023-02-11T00:07:43.173Z,-2.95
2023-02-11T00:08:38.763Z,-2.97
2023-02-11T00:09:33.741Z,-2.99
2023-02-11T00:10:28.985Z,-3.01
2023-02-11T00:11:24.169Z,-3.04
2023-02-11T00:12:19.813Z,-3.06
2023-02-11T00:13:14.759Z,-3.06
2023-02-11T00:14:10.174Z,-3.06
2023-02-11T00:15:05.174Z,-3.08
2023-02-11T00:16:00.380Z,-3.10
2023-02-11T00:16:55.722Z,-3.11
2023-02-11T00:19:15.946Z,-3.46
2023-02-11T00:20:10.932Z,-3.25
2023-02-11T00:21:06.304Z,-3.17
2023-02-11T00:22:01.657Z,-3.15
2023-02-11T00:22:56.778Z,-3.15
2023-02-11T00:23:51.981Z,-3.14
2023-02-11T00:24:47.202Z,-3.11
2023-02-11T00:25:42.857Z,-3.00
2023-02-11T00:26:37.902Z,-2.87
2023-02-11T00:27:33.413Z,-2.74
2023-02-11T00:28:28.339Z,-2.63
2023-02-11T00:29:23.595Z,-2.56
2023-02-11T00:30:18.764Z,-2.49
2023-02-11T00:31:14.170Z,-2.49
2023-02-11T00:32:09.243Z,-2.54
2023-02-11T00:33:04.616Z,-2.64
2023-02-11T00:34:00.423Z,-2.72
2023-02-11T00:34:55.617Z,-2.83
2023-02-11T00:35:50.589Z,-2.95
2023-02-11T00:36:45.535Z,-3.05
2023-02-11T00:37:40.750Z,-3.11
2023-02-11T00:38:36.004Z,-3.15
2023-02-11T00:39:31.588Z,-3.19
2023-02-11T00:40:26.572Z,-3.26
2023-02-11T00:41:21.789Z,-3.29
2023-02-11T00:42:17.175Z,-3.29
2023-02-11T00:43:12.229Z,-3.27
2023-02-11T00:44:07.640Z,-3.25
2023-02-11T00:45:02.848Z,-3.24
2023-02-11T00:45:58.265Z,-3.24
2023-02-11T00:46:53.334Z,-3.23
2023-02-11T00:47:48.589Z,-3.21
2023-02-11T00:48:43.826Z,-3.21
2023-02-11T00:49:39.239Z,-3.23
2023-02-11T00:50:34.353Z,-3.23
2023-02-11T00:51:29.743Z,-3.21
2023-02-11T00:52:25.384Z,-3.18
2023-02-11T00:53:20.371Z,-3.19
2023-02-11T00:54:15.399Z,-3.23
2023-02-11T00:55:10.650Z,-3.28
2023-02-11T00:56:05.856Z,-3.32
2023-02-11T00:57:01.235Z,-3.35
2023-02-11T00:57:56.465Z,-3.38
2023-02-11T00:58:51.559Z,-3.40
2023-02-11T00:59:46.788Z,-3.41
2023-02-11T01:00:41.994Z,-3.42
2023-02-11T01:01:37.342Z,-3.46
2023-02-11T01:02:32.486Z,-3.47
2023-02-11T01:03:27.895Z,-3.48
2023-02-11T01:04:23.004Z,-3.48
2023-02-11T01:06:43.366Z,-3.88
2023-02-11T01:07:38.523Z,-3.68
2023-02-11T01:08:33.749Z,-3.60
2023-02-11T01:09:28.984Z,-3.56
2023-02-11T01:10:24.475Z,-3.53
2023-02-11T01:11:19.423Z,-3.49
2023-02-11T01:12:14.799Z,-3.47
2023-02-11T01:13:09.903Z,-3.45
2023-02-11T01:14:05.230Z,-3.44
2023-02-11T01:15:00.468Z,-3.46
2023-02-11T01:15:56.611Z,-3.49
2023-02-11T01:16:51.154Z,-3.49
2023-02-11T01:17:46.253Z,-3.52
2023-02-11T01:18:42.140Z,-3.56
2023-02-11T01:19:36.858Z,-3.60
2023-02-11T01:20:32.183Z,-3.63
2023-02-11T01:21:27.498Z,-3.65
2023-02-11T01:22:22.616Z,-3.67
2023-02-11T01:23:17.808Z,-3.70
2023-02-11T01:24:13.201Z,-3.72
2023-02-11T01:25:08.549Z,-3.72
2023-02-11T01:26:03.772Z,-3.70
2023-02-11T01:26:59.323Z,-3.70
2023-02-11T01:27:54.294Z,-3.72
2023-02-11T01:28:49.603Z,-3.73
2023-02-11T01:29:44.836Z,-3.70
2023-02-11T01:30:40.084Z,-3.68
2023-02-11T01:31:35.338Z,-3.66
2023-02-11T01:32:30.524Z,-3.64
2023-02-11T01:33:25.883Z,-3.64
2023-02-11T01:34:21.216Z,-3.65
2023-02-11T01:35:16.326Z,-3.69
2023-02-11T01:36:11.528Z,-3.73
2023-02-11T01:37:07.226Z,-3.75
2023-02-11T01:38:02.310Z,-3.78
2023-02-11T01:38:57.387Z,-3.86
2023-02-11T01:39:52.687Z,-3.89
2023-02-11T01:40:48.074Z,-3.89
2023-02-11T01:41:43.122Z,-3.91
2023-02-11T01:42:38.456Z,-3.90
2023-02-11T01:43:33.764Z,-3.86
2023-02-11T01:44:28.958Z,-3.79
2023-02-11T01:45:24.193Z,-3.72
2023-02-11T01:46:19.478Z,-3.69
2023-02-11T01:47:15.620Z,-3.69
2023-02-11T01:48:10.047Z,-3.70
2023-02-11T01:49:05.316Z,-3.69
2023-02-11T01:50:00.430Z,-3.67
2023-02-11T01:50:55.796Z,-3.63
2023-02-11T01:51:51.003Z,-3.57
2023-02-11T01:52:46.184Z,-3.55
2023-02-11T01:53:41.406Z,-3.55
2023-02-11T01:54:36.611Z,-3.59
2023-02-11T01:55:31.864Z,-3.61
2023-02-11T01:56:27.076Z,-3.64
2023-02-11T01:57:22.549Z,-3.64
2023-02-11T01:58:17.496Z,-3.59
2023-02-11T01:59:12.852Z,-3.54
2023-02-11T02:00:08.082Z,-3.51
2023-02-11T02:01:03.288Z,-3.52
2023-02-11T02:01:58.610Z,-3.59
2023-02-11T02:02:53.715Z,-3.67
2023-02-11T02:03:48.972Z,-3.71
2023-02-11T02:04:44.544Z,-3.78
2023-02-11T02:05:39.529Z,-3.86
2023-02-11T02:06:34.764Z,-3.94
2023-02-11T02:07:29.927Z,-4.00
2023-02-11T02:08:25.484Z,-4.06
2023-02-11T02:09:19.739Z,-4.07
2023-02-11T02:10:14.850Z,-4.11
2023-02-11T02:11:09.934Z,-4.11
2023-02-11T02:12:05.190Z,-4.09
2023-02-11T02:13:00.206Z,-4.09
2023-02-11T02:13:55.168Z,-4.05
2023-02-11T02:14:50.130Z,-4.00
2023-02-11T02:15:45.689Z,-3.94
2023-02-11T02:16:40.699Z,-3.92
2023-02-11T02:17:35.818Z,-3.91
2023-02-11T02:18:31.119Z,-3.90
2023-02-11T02:19:26.056Z,-3.91
2023-02-11T02:20:21.205Z,-3.89
2023-02-11T02:21:16.322Z,-3.87
2023-02-11T02:22:11.163Z,-3.86
2023-02-11T02:23:06.271Z,-3.87
2023-02-11T02:24:01.331Z,-3.81
2023-02-11T02:24:56.496Z,-3.77
2023-02-11T02:25:51.672Z,-3.75
2023-02-11T02:26:46.551Z,-3.78
2023-02-11T02:27:41.480Z,-3.77
2023-02-11T02:28:36.579Z,-3.77
2023-02-11T02:29:31.563Z,-3.82
2023-02-11T02:30:26.644Z,-3.84
2023-02-11T02:31:21.713Z,-3.84
2023-02-11T02:32:20.623Z,-3.85
2023-02-11T02:33:22.451Z,-3.88
2023-02-11T02:34:11.825Z,-3.90
2023-02-11T02:35:05.869Z,-3.88
2023-02-11T02:36:01.890Z,-3.88
2023-02-11T02:36:57.106Z,-3.84
2023-02-11T02:37:52.380Z,-3.83
2023-02-11T02:38:47.564Z,-3.81
2023-02-11T02:39:43.918Z,-3.77
2023-02-11T02:40:38.981Z,-3.74
2023-02-11T02:41:34.217Z,-3.76
2023-02-11T02:42:29.465Z,-3.79
2023-02-11T02:43:24.692Z,-3.84
2023-02-11T02:44:19.893Z,-3.89
2023-02-11T02:45:15.278Z,-3.93
2023-02-11T02:46:10.525Z,-3.97
2023-02-11T02:47:05.871Z,-3.98
2023-02-11T02:48:00.968Z,-3.99
2023-02-11T02:48:56.352Z,-3.98
2023-02-11T02:49:51.428Z,-3.99
2023-02-11T02:50:46.669Z,-3.89
2023-02-11T02:51:41.906Z,-3.86
2023-02-11T02:52:37.390Z,-3.91
2023-02-11T02:53:32.428Z,-3.95
2023-02-11T02:54:27.798Z,-3.95
2023-02-11T02:55:23.020Z,-3.97
2023-02-11T02:56:18.366Z,-4.02
2023-02-11T02:57:13.345Z,-4.05
2023-02-11T02:58:08.614Z,-4.08
2023-02-11T02:59:04.100Z,-4.12
2023-02-11T02:59:59.149Z,-4.13
2023-02-11T03:00:54.511Z,-4.12
2023-02-11T03:03:21.055Z,-4.58
2023-02-11T03:04:15.998Z,-4.42
2023-02-11T03:05:11.350Z,-4.35
2023-02-11T03:06:06.565Z,-4.31
2023-02-11T03:07:01.927Z,-4.29
2023-02-11T03:07:57.172Z,-4.28
2023-02-11T03:08:52.403Z,-4.29
2023-02-11T03:09:47.603Z,-4.28
2023-02-11T03:10:42.951Z,-4.24
2023-02-11T03:11:38.379Z,-4.19
2023-02-11T03:12:33.390Z,-4.14
2023-02-11T03:13:28.756Z,-4.09
2023-02-11T03:14:23.865Z,-4.03
2023-02-11T03:15:19.097Z,-3.98
2023-02-11T03:16:14.375Z,-3.89
2023-02-11T03:17:09.566Z,-3.79
2023-02-11T03:18:05.112Z,-3.74
2023-02-11T03:19:00.088Z,-3.72
2023-02-11T03:19:55.343Z,-3.75
2023-02-11T03:20:50.547Z,-3.79
2023-02-11T03:21:45.797Z,-3.82
2023-02-11T03:22:41.019Z,-3.84
2023-02-11T03:23:36.528Z,-3.86
2023-02-11T03:24:31.519Z,-3.90
2023-02-11T03:25:26.855Z,-3.96
2023-02-11T03:26:21.946Z,-4.01
2023-02-11T03:27:17.168Z,-4.08
2023-02-11T03:28:12.473Z,-4.11
2023-02-11T03:29:07.713Z,-4.12
2023-02-11T03:30:02.820Z,-4.13
2023-02-11T03:30:58.076Z,-4.13
2023-02-11T03:31:53.324Z,-4.12
2023-02-11T03:32:48.560Z,-4.11
2023-02-11T03:33:43.892Z,-4.12
2023-02-11T03:34:39.142Z,-4.12
2023-02-11T03:35:34.210Z,-4.10
2023-02-11T03:36:29.562Z,-4.07
2023-02-11T03:37:24.819Z,-4.02
2023-02-11T03:38:20.054Z,-3.97
2023-02-11T03:39:15.636Z,-3.93
2023-02-11T03:40:10.647Z,-3.91
2023-02-11T03:41:05.857Z,-3.92
2023-02-11T03:42:01.108Z,-3.92
2023-02-11T03:42:56.307Z,-3.91
2023-02-11T03:43:51.785Z,-3.93
2023-02-11T03:44:47.036Z,-3.93
2023-02-11T03:45:42.215Z,-3.91
2023-02-11T03:46:37.455Z,-3.89
2023-02-11T03:47:32.670Z,-3.88
2023-02-11T03:48:27.922Z,-3.88
2023-02-11T03:49:23.292Z,-3.87
2023-02-11T03:50:18.353Z,-3.84
2023-02-11T03:51:13.735Z,-3.80
2023-02-11T03:52:08.974Z,-3.75
2023-02-11T03:53:04.433Z,-3.75
2023-02-11T03:53:59.630Z,-3.72
2023-02-11T03:54:55.264Z,-3.68
2023-02-11T03:55:50.231Z,-3.65
2023-02-11T03:56:45.220Z,-3.63
2023-02-11T03:57:40.407Z,-3.61
2023-02-11T03:58:35.630Z,-3.58
2023-02-11T03:59:30.837Z,-3.52
2023-02-11T04:00:26.209Z,-3.48
2023-02-11T04:01:21.681Z,-3.46
2023-02-11T04:02:16.540Z,-3.49
2023-02-11T04:03:11.813Z,-3.52
2023-02-11T04:04:07.168Z,-3.55
2023-02-11T04:05:02.617Z,-3.62
2023-02-11T04:05:58.450Z,-3.66
2023-02-11T04:06:53.539Z,-3.70
2023-02-11T04:07:48.900Z,-3.72
2023-02-11T04:08:44.220Z,-3.75
2023-02-11T04:09:39.498Z,-3.76
2023-02-11T04:10:34.551Z,-3.75
2023-02-11T04:11:30.010Z,-3.70
2023-02-11T04:12:25.107Z,-3.65
2023-02-11T04:13:20.469Z,-3.52
2023-02-11T04:14:15.677Z,-3.50
2023-02-11T04:15:11.009Z,-3.48
2023-02-11T04:16:06.354Z,-3.47
2023-02-11T04:17:01.536Z,-3.44
2023-02-11T04:17:56.769Z,-3.41
2023-02-11T04:18:51.992Z,-3.36
2023-02-11T04:19:47.212Z,-3.33
2023-02-11T04:20:42.468Z,-3.31
2023-02-11T04:21:38.081Z,-3.32
2023-02-11T04:22:32.932Z,-3.36
2023-02-11T04:23:28.129Z,-3.35
2023-02-11T04:24:23.415Z,-3.34
2023-02-11T04:25:18.605Z,-3.33
2023-02-11T04:26:13.862Z,-3.36
2023-02-11T04:27:09.101Z,-3.41
2023-02-11T04:28:04.404Z,-3.48
2023-02-11T04:28:59.746Z,-3.55
2023-02-11T04:29:55.098Z,-3.60
2023-02-11T04:30:50.172Z,-3.63
2023-02-11T04:31:45.466Z,-3.61
2023-02-11T04:32:40.888Z,-3.69
2023-02-11T04:33:37.064Z,-3.72
2023-02-11T04:34:31.335Z,-3.72
2023-02-11T04:35:26.562Z,-3.69
2023-02-11T04:36:21.786Z,-3.65
2023-02-11T04:37:17.825Z,-3.60
2023-02-11T04:38:14.061Z,-3.56
2023-02-11T04:39:08.237Z,-3.52
2023-02-11T04:40:03.432Z,-3.47
2023-02-11T04:40:58.813Z,-3.42
2023-02-11T04:41:54.132Z,-3.40
2023-02-11T04:42:49.374Z,-3.38
2023-02-11T04:43:44.699Z,-3.33
2023-02-11T04:44:39.930Z,-3.29
2023-02-11T04:45:35.017Z,-3.30
2023-02-11T04:46:30.236Z,-3.29
2023-02-11T04:47:25.164Z,-3.27
2023-02-11T04:48:20.253Z,-3.23
2023-02-11T04:49:15.326Z,-3.24
2023-02-11T04:50:10.305Z,-3.21
2023-02-11T04:51:05.265Z,-3.18
2023-02-11T04:52:00.366Z,-3.16
2023-02-11T04:53:00.884Z,-3.17
2023-02-11T04:53:56.134Z,-3.18
2023-02-11T04:54:51.607Z,-3.19
2023-02-11T04:55:47.268Z,-3.20
2023-02-11T04:56:42.607Z,-3.20
2023-02-11T04:57:38.050Z,-3.22
2023-02-11T04:58:34.222Z,-3.22
2023-02-11T04:59:29.484Z,-3.21
2023-02-11T05:00:25.369Z,-3.20
2023-02-11T05:01:20.559Z,-3.18
2023-02-11T05:02:15.816Z,-3.15
2023-02-11T05:03:11.633Z,-3.13
2023-02-11T05:04:06.894Z,-3.10
2023-02-11T05:05:02.929Z,-3.05
2023-02-11T05:05:57.894Z,-3.01
2023-02-11T05:06:53.221Z,-2.96
2023-02-11T05:07:48.920Z,-2.92
2023-02-11T05:08:44.244Z,-2.87
2023-02-11T05:09:39.580Z,-2.82
2023-02-11T05:10:35.934Z,-2.78
2023-02-11T05:11:31.031Z,-2.75
2023-02-11T05:12:26.888Z,-2.73
2023-02-11T05:13:22.130Z,-2.68
2023-02-11T05:14:17.638Z,-2.64
2023-02-11T05:15:13.527Z,-2.58
2023-02-11T05:16:08.647Z,-2.54
2023-02-11T05:17:04.437Z,-2.54
2023-02-11T05:17:59.721Z,-2.55
2023-02-11T05:18:55.269Z,-2.54
2023-02-11T05:19:50.851Z,-2.55
2023-02-11T05:20:46.109Z,-2.57
2023-02-11T05:21:53.184Z,-2.57
2023-02-11T05:22:38.684Z,-2.61
2023-02-11T05:23:33.010Z,-2.64
2023-02-11T05:24:28.938Z,-2.68
2023-02-11T05:25:25.106Z,-2.71
2023-02-11T05:26:19.421Z,-2.77
2023-02-11T05:28:43.747Z,-3.28
2023-02-11T05:29:37.771Z,-3.07
2023-02-11T05:30:33.060Z,-2.99
2023-02-11T05:31:28.387Z,-2.93
2023-02-11T05:32:23.596Z,-2.87
2023-02-11T05:33:18.806Z,-2.81
2023-02-11T05:34:14.061Z,-2.74
2023-02-11T05:35:09.284Z,-2.68
2023-02-11T05:36:04.643Z,-2.65
2023-02-11T05:36:59.788Z,-2.62
2023-02-11T05:37:55.043Z,-2.58
2023-02-11T05:38:50.490Z,-2.55
2023-02-11T05:39:45.612Z,-2.53
2023-02-11T05:40:40.817Z,-2.55
2023-02-11T05:41:36.217Z,-2.58
2023-02-11T05:42:31.368Z,-2.60
2023-02-11T05:43:26.611Z,-2.58
2023-02-11T05:44:21.827Z,-2.55
2023-02-11T05:45:17.191Z,-2.52
2023-02-11T05:46:12.399Z,-2.50
2023-02-11T05:47:07.644Z,-2.48
2023-02-11T05:48:02.945Z,-2.44
2023-02-11T05:48:58.419Z,-2.41
2023-02-11T05:49:53.358Z,-2.41
2023-02-11T05:50:48.731Z,-2.42
2023-02-11T05:51:44.014Z,-2.38
2023-02-11T05:52:39.246Z,-2.33
2023-02-11T05:53:34.484Z,-2.34
2023-02-11T05:54:29.833Z,-2.35
2023-02-11T05:55:25.020Z,-2.39
2023-02-11T05:56:20.252Z,-2.43
2023-02-11T05:57:15.614Z,-2.45
2023-02-11T05:58:10.689Z,-2.44
2023-02-11T05:59:06.297Z,-2.43
2023-02-11T06:00:01.261Z,-2.41
2023-02-11T06:00:56.473Z,-2.37
2023-02-11T06:01:51.712Z,-2.35
2023-02-11T06:02:46.951Z,-2.35
2023-02-11T06:03:42.207Z,-2.37
2023-02-11T06:04:37.468Z,-2.39
2023-02-11T06:05:32.777Z,-2.38
2023-02-11T06:06:28.052Z,-2.34
2023-02-11T06:07:23.305Z,-2.31
2023-02-11T06:08:18.525Z,-2.27
2023-02-11T06:09:13.857Z,-2.24
2023-02-11T06:10:09.113Z,-2.24
2023-02-11T06:11:05.324Z,-2.26
2023-02-11T06:11:59.615Z,-2.27
2023-02-11T06:12:55.350Z,-2.25
2023-02-11T06:13:50.151Z,-2.25
2023-02-11T06:14:45.452Z,-2.26
2023-02-11T06:15:40.743Z,-2.25
2023-02-11T06:16:36.027Z,-2.22
2023-02-11T06:17:31.311Z,-2.23
2023-02-11T06:18:26.721Z,-2.26
2023-02-11T06:19:22.034Z,-2.27
2023-02-11T06:20:17.173Z,-2.28
2023-02-11T06:21:12.444Z,-2.29
2023-02-11T06:22:07.713Z,-2.34
2023-02-11T06:23:03.142Z,-2.41
2023-02-11T06:23:58.510Z,-2.42
2023-02-11T06:25:01.408Z,-2.40
2023-02-11T06:25:50.440Z,-2.42
2023-02-11T06:26:44.408Z,-2.40
2023-02-11T06:27:39.652Z,-2.34
2023-02-11T06:28:34.970Z,-2.27
2023-02-11T06:29:30.282Z,-2.21
2023-02-11T06:30:25.555Z,-2.15
2023-02-11T06:31:21.040Z,-2.10
2023-02-11T06:32:36.984Z,-2.06
2023-02-11T06:33:12.960Z,-1.99
2023-02-11T06:34:07.330Z,-1.93
2023-02-11T06:35:02.669Z,-1.89
2023-02-11T06:35:57.984Z,-1.84
2023-02-11T06:36:53.286Z,-1.83
2023-02-11T06:37:48.580Z,-1.82
2023-02-11T06:38:44.046Z,-1.82
2023-02-11T06:39:39.277Z,-1.81
2023-02-11T06:40:34.624Z,-1.78
2023-02-11T06:41:30.086Z,-1.75
2023-02-11T06:42:25.291Z,-1.74
2023-02-11T06:43:20.702Z,-1.76
2023-02-11T06:44:16.071Z,-1.73
2023-02-11T06:45:11.572Z,-1.70
2023-02-11T06:46:06.867Z,-1.69
2023-02-11T06:47:02.412Z,-1.65
2023-02-11T06:47:57.700Z,-1.60
2023-02-11T06:48:53.362Z,-1.56
2023-02-11T06:49:48.526Z,-1.56
2023-02-11T06:50:43.950Z,-1.63
2023-02-11T06:51:39.337Z,-1.66
2023-02-11T06:52:38.937Z,-1.70
2023-02-11T06:53:34.530Z,-1.75
2023-02-11T06:54:29.787Z,-1.76
2023-02-11T06:55:25.347Z,-1.76
2023-02-11T06:56:21.081Z,-1.82
2023-02-11T06:57:16.046Z,-1.86
2023-02-11T06:58:11.453Z,-1.89
2023-02-11T06:59:06.849Z,-1.90
2023-02-11T07:00:02.603Z,-1.90
2023-02-11T07:00:57.734Z,-1.84
2023-02-11T07:01:53.095Z,-1.75
2023-02-11T07:02:48.423Z,-1.69
2023-02-11T07:03:43.809Z,-1.64
2023-02-11T07:04:38.804Z,-1.62
2023-02-11T07:05:33.810Z,-1.63
2023-02-11T07:06:28.787Z,-1.66
2023-02-11T07:07:24.147Z,-1.67
2023-02-11T07:08:19.001Z,-1.67
2023-02-11T07:09:14.255Z,-1.65
2023-02-11T07:10:09.299Z,-1.60
2023-02-11T07:11:04.380Z,-1.54
2023-02-11T07:12:00.147Z,-1.45
2023-02-11T07:12:56.474Z,-1.41
2023-02-11T07:13:50.023Z,-1.39
2023-02-11T07:14:44.681Z,-1.40
2023-02-11T07:15:39.961Z,-1.43
2023-02-11T07:16:35.364Z,-1.45
2023-02-11T07:17:30.833Z,-1.50
2023-02-11T07:18:26.270Z,-1.55
2023-02-11T07:19:21.278Z,-1.66
2023-02-11T07:20:16.357Z,-1.75
2023-02-11T07:21:11.388Z,-1.80
2023-02-11T07:22:06.564Z,-1.82
2023-02-11T07:23:01.616Z,-1.86
2023-02-11T07:23:56.662Z,-1.87
2023-02-11T07:24:51.849Z,-1.88
2023-02-11T07:25:46.771Z,-1.83
2023-02-11T07:26:41.787Z,-1.78
2023-02-11T07:27:36.883Z,-1.72
2023-02-11T07:28:32.012Z,-1.69
2023-02-11T07:29:27.104Z,-1.67
2023-02-11T07:30:22.139Z,-1.64
2023-02-11T07:31:17.468Z,-1.56
2023-02-11T07:32:14.459Z,-1.51
2023-02-11T07:33:09.833Z,-1.47
2023-02-11T07:34:06.352Z,-1.39
2023-02-11T07:35:01.266Z,-1.32
2023-02-11T07:35:56.512Z,-1.28
2023-02-11T07:36:52.092Z,-1.23
2023-02-11T07:37:48.023Z,-1.19
2023-02-11T07:38:43.541Z,-1.10
2023-02-11T07:39:39.444Z,-1.06
2023-02-11T07:40:34.540Z,-1.01
2023-02-11T07:41:30.029Z,-0.96
2023-02-11T07:42:25.323Z,-0.92
2023-02-11T07:43:20.159Z,-0.82
2023-02-11T07:44:15.552Z,-0.66
2023-02-11T07:45:10.498Z,-0.25
2023-02-11T07:46:05.622Z,0.19
2023-02-11T07:47:00.690Z,0.53
2023-02-11T07:47:55.771Z,0.80
2023-02-11T07:48:50.831Z,0.76
2023-02-11T07:49:45.984Z,0.69
2023-02-11T07:50:40.905Z,0.75
2023-02-11T07:51:36.082Z,0.81
2023-02-11T07:52:31.105Z,0.95
2023-02-11T07:53:25.982Z,1.18
2023-02-11T07:54:20.950Z,1.41
2023-02-11T07:55:18.315Z,1.61
2023-02-11T07:56:13.608Z,1.83
2023-02-11T07:57:09.069Z,2.04
2023-02-11T07:58:04.521Z,1.99
2023-02-11T07:58:59.960Z,1.93
2023-02-11T07:59:55.468Z,1.63
2023-02-11T08:00:51.034Z,1.34
2023-02-11T08:01:46.389Z,1.38
2023-02-11T08:02:41.976Z,1.33
2023-02-11T08:03:37.286Z,1.18
2023-02-11T08:04:32.863Z,1.16
2023-02-11T08:05:28.149Z,1.05
2023-02-11T08:06:23.804Z,0.92
2023-02-11T08:07:19.440Z,1.01
2023-02-11T08:08:14.735Z,1.00
2023-02-11T08:09:09.748Z,0.93
2023-02-11T08:10:04.887Z,0.91
2023-02-11T08:10:59.849Z,0.87
2023-02-11T08:11:54.914Z,0.86
2023-02-11T08:12:49.896Z,0.83
2023-02-11T08:13:44.969Z,0.90
2023-02-11T08:14:40.147Z,1.05
2023-02-11T08:15:35.824Z,1.50
2023-02-11T08:16:30.279Z,1.86
2023-02-11T08:17:25.340Z,2.14
2023-02-11T08:18:22.016Z,2.14
2023-02-11T08:19:17.366Z,2.33
2023-02-11T08:20:12.894Z,2.62
2023-02-11T08:21:08.328Z,2.76
2023-02-11T08:22:03.749Z,2.93
2023-02-11T08:22:59.202Z,2.96
2023-02-11T08:23:54.529Z,3.01
2023-02-11T08:24:52.318Z,3.00
2023-02-11T08:25:45.552Z,2.64
2023-02-11T08:26:40.917Z,2.33
2023-02-11T08:27:36.376Z,2.09
2023-02-11T08:28:31.943Z,1.92
2023-02-11T08:29:27.445Z,1.77
2023-02-11T08:30:24.593Z,1.71
2023-02-11T08:31:18.531Z,1.65
2023-02-11T08:32:13.456Z,1.61
2023-02-11T08:33:08.387Z,1.56
2023-02-11T08:34:03.500Z,1.50
2023-02-11T08:34:58.521Z,1.39
2023-02-11T08:35:53.628Z,1.31
2023-02-11T08:36:48.682Z,1.24
2023-02-11T08:37:43.714Z,1.15
2023-02-11T08:38:39.030Z,1.14
2023-02-11T08:39:33.841Z,1.19
2023-02-11T08:40:28.978Z,1.25
2023-02-11T08:41:25.657Z,1.34
2023-02-11T08:42:20.726Z,1.44
2023-02-11T08:43:15.781Z,1.55
2023-02-11T08:44:10.737Z,1.84
2023-02-11T08:45:06.735Z,1.98
2023-02-11T08:46:02.659Z,2.51
2023-02-11T08:46:57.667Z,2.67
2023-02-11T08:47:53.138Z,3.36
2023-02-11T08:48:48.621Z,4.07
2023-02-11T08:49:44.651Z,4.61
2023-02-11T08:50:39.664Z,4.88
2023-02-11T08:51:35.424Z,5.18
2023-02-11T08:52:30.630Z,4.84
2023-02-11T08:53:26.062Z,4.54
2023-02-11T08:54:21.546Z,4.26
2023-02-11T08:55:16.988Z,4.05
2023-02-11T08:56:13.572Z,4.04
2023-02-11T08:57:08.061Z,4.13
2023-02-11T08:58:03.048Z,4.02
2023-02-11T08:58:57.997Z,3.96
2023-02-11T08:59:53.295Z,3.95
2023-02-11T09:00:48.666Z,3.80
2023-02-11T09:01:43.693Z,3.67
2023-02-11T09:02:38.610Z,3.62
2023-02-11T09:03:33.657Z,3.57
2023-02-11T09:04:31.164Z,3.62
2023-02-11T09:05:26.395Z,3.68
2023-02-11T09:06:21.336Z,3.88
2023-02-11T09:07:16.883Z,3.85
2023-02-11T09:08:11.550Z,3.69
2023-02-11T09:09:06.699Z,3.58
2023-02-11T09:10:01.622Z,3.57
2023-02-11T09:10:56.725Z,3.60
2023-02-11T09:11:52.418Z,3.60
2023-02-11T09:12:47.642Z,3.63
2023-02-11T09:13:43.179Z,3.52
2023-02-11T09:14:38.911Z,3.40
2023-02-11T09:15:34.065Z,3.32
2023-02-11T09:16:30.249Z,3.24
2023-02-11T09:17:25.496Z,3.23
2023-02-11T09:18:20.973Z,3.28
2023-02-11T09:19:16.412Z,3.35
2023-02-11T09:20:11.939Z,3.38
2023-02-11T09:21:06.992Z,3.33
2023-02-11T09:22:02.411Z,3.66
2023-02-11T09:22:57.458Z,3.70
2023-02-11T09:23:52.087Z,3.78
2023-02-11T09:24:47.249Z,3.87
2023-02-11T09:25:42.300Z,3.81
2023-02-11T09:26:37.330Z,3.52
2023-02-11T09:27:35.021Z,3.93
2023-02-11T09:28:30.079Z,4.63
2023-02-11T09:29:25.090Z,5.32
2023-02-11T09:30:20.090Z,5.89
2023-02-11T09:31:15.312Z,6.34
2023-02-11T09:32:10.330Z,6.87
2023-02-11T09:33:05.386Z,6.87
2023-02-11T09:34:00.284Z,6.56
2023-02-11T09:34:55.748Z,5.91
2023-02-11T09:35:51.391Z,5.14
2023-02-11T09:36:47.173Z,4.74
2023-02-11T09:37:42.205Z,4.65
2023-02-11T09:38:37.662Z,4.90
2023-02-11T09:39:33.224Z,5.03
2023-02-11T09:40:28.718Z,5.08
2023-02-11T09:41:24.154Z,5.23
2023-02-11T09:42:19.704Z,5.33
2023-02-11T09:43:15.196Z,5.69
2023-02-11T09:44:10.652Z,6.05
2023-02-11T09:45:06.085Z,6.39
2023-02-11T09:46:01.593Z,6.30
2023-02-11T09:46:57.165Z,6.51
2023-02-11T09:47:52.675Z,6.72
2023-02-11T09:48:48.100Z,6.53
2023-02-11T09:49:43.313Z,6.25
2023-02-11T09:50:42.673Z,6.47
2023-02-11T09:51:37.954Z,6.66
2023-02-11T09:52:33.438Z,6.63
2023-02-11T09:53:29.082Z,6.91
2023-02-11T09:54:24.425Z,6.86
2023-02-11T09:55:19.924Z,6.83
2023-02-11T09:56:15.893Z,7.16
2023-02-11T09:57:26.512Z,7.23
2023-02-11T09:58:08.185Z,7.32
2023-02-11T09:59:02.474Z,7.70
2023-02-11T09:59:58.163Z,7.88
2023-02-11T10:00:53.608Z,8.06
2023-02-11T10:01:49.427Z,8.29
2023-02-11T10:02:44.469Z,8.30
2023-02-11T10:03:40.002Z,7.47
2023-02-11T10:04:35.109Z,7.15
2023-02-11T10:05:30.073Z,6.83
2023-02-11T10:06:25.159Z,6.59
2023-02-11T10:07:20.274Z,6.25
2023-02-11T10:08:16.988Z,5.73
2023-02-11T10:09:10.455Z,5.37
2023-02-11T10:10:05.511Z,5.29
2023-02-11T10:11:00.564Z,5.12
2023-02-11T10:11:55.645Z,5.07
2023-02-11T10:12:50.763Z,4.91
2023-02-11T10:13:46.714Z,4.78
2023-02-11T10:14:41.662Z,4.73
2023-02-11T10:15:36.750Z,4.52
2023-02-11T10:16:32.610Z,4.31
2023-02-11T10:17:27.571Z,4.23
2023-02-11T10:18:23.096Z,4.25
2023-02-11T10:19:18.709Z,4.34
2023-02-11T10:20:16.550Z,4.45
2023-02-11T10:21:09.577Z,4.58
2023-02-11T10:22:04.817Z,4.70
2023-02-11T10:22:59.923Z,4.83
2023-02-11T10:23:54.919Z,4.91
2023-02-11T10:24:50.178Z,4.87
2023-02-11T10:25:45.546Z,4.68
2023-02-11T10:26:40.153Z,4.48
2023-02-11T10:27:35.268Z,4.19
2023-02-11T10:28:30.361Z,4.23
2023-02-11T10:29:25.387Z,4.32
2023-02-11T10:30:20.648Z,4.42
2023-02-11T10:31:15.614Z,4.58
2023-02-11T10:32:11.351Z,4.72
2023-02-11T10:33:05.721Z,4.75
2023-02-11T10:34:00.670Z,4.70
2023-02-11T10:34:55.892Z,4.88
2023-02-11T10:35:51.392Z,4.96
2023-02-11T10:36:50.647Z,4.78
2023-02-11T10:37:46.232Z,4.67
2023-02-11T10:38:41.660Z,4.55
2023-02-11T10:39:36.956Z,4.52
2023-02-11T10:40:32.393Z,4.47
2023-02-11T10:41:27.964Z,4.48
2023-02-11T10:42:23.312Z,4.37
2023-02-11T10:43:19.005Z,4.27
2023-02-11T10:44:14.197Z,4.24
2023-02-11T10:45:09.636Z,4.29
2023-02-11T10:46:05.318Z,4.58
2023-02-11T10:47:00.526Z,5.46
2023-02-11T10:47:56.140Z,6.01
2023-02-11T10:48:51.641Z,6.65
2023-02-11T10:49:47.189Z,7.34
2023-02-11T10:50:42.266Z,7.35
2023-02-11T10:51:37.312Z,7.64
2023-02-11T10:52:32.294Z,8.11
2023-02-11T10:53:27.438Z,8.40
2023-02-11T10:54:22.443Z,8.58
2023-02-11T10:55:17.471Z,8.83
2023-02-11T10:56:12.557Z,9.18
2023-02-11T10:57:07.687Z,9.42
2023-02-11T10:58:02.784Z,9.76
2023-02-11T10:58:57.880Z,10.13
2023-02-11T10:59:54.102Z,10.39
2023-02-11T11:00:49.922Z,9.98
2023-02-11T11:01:44.977Z,9.97
2023-02-11T11:02:40.421Z,9.98
2023-02-11T11:05:00.850Z,9.56
2023-02-11T11:05:58.197Z,9.18
2023-02-11T11:06:51.469Z,8.67
2023-02-11T11:07:46.951Z,8.44
2023-02-11T11:08:42.500Z,8.67
2023-02-11T11:09:37.896Z,9.31
2023-02-11T11:10:33.381Z,9.73
2023-02-11T11:11:28.727Z,10.17
2023-02-11T11:12:24.147Z,10.70
2023-02-11T11:13:19.569Z,11.19
2023-02-11T11:14:15.017Z,11.38
2023-02-11T11:15:10.466Z,11.42
2023-02-11T11:16:06.119Z,10.71
2023-02-11T11:17:01.271Z,10.64
2023-02-11T11:18:11.350Z,11.05
2023-02-11T11:18:53.137Z,11.41
2023-02-11T11:19:47.468Z,11.72
2023-02-11T11:20:43.042Z,11.87
2023-02-11T11:21:38.573Z,12.13
2023-02-11T11:22:33.975Z,12.32
2023-02-11T11:23:29.526Z,12.47
2023-02-11T11:24:26.951Z,12.17
2023-02-11T11:25:20.556Z,11.34
2023-02-11T11:26:16.119Z,10.79
2023-02-11T11:27:11.756Z,10.08
2023-02-11T11:28:07.377Z,9.97
2023-02-11T11:29:02.687Z,9.48
2023-02-11T11:29:58.304Z,9.16
2023-02-11T11:30:54.189Z,9.14
2023-02-11T11:31:49.335Z,9.56
2023-02-11T11:32:44.674Z,9.61
2023-02-11T11:33:40.120Z,9.85
2023-02-11T11:34:35.609Z,10.48
2023-02-11T11:35:31.255Z,10.95
2023-02-11T11:36:26.736Z,11.16
2023-02-11T11:37:22.344Z,11.00
2023-02-11T11:38:17.715Z,11.14
2023-02-11T11:39:13.689Z,11.10
2023-02-11T11:40:08.656Z,10.91
2023-02-11T11:41:04.161Z,10.65
2023-02-11T11:41:59.898Z,10.40
2023-02-11T11:42:55.283Z,10.44
2023-02-11T11:43:50.670Z,10.70
2023-02-11T11:44:46.420Z,10.81
2023-02-11T11:45:41.842Z,10.33
2023-02-11T11:46:37.319Z,10.33
2023-02-11T11:47:32.814Z,10.55
2023-02-11T11:48:28.083Z,10.25
2023-02-11T11:49:23.603Z,10.03
2023-02-11T11:50:21.094Z,10.13
2023-02-11T11:51:14.738Z,10.43
2023-02-11T11:52:10.313Z,10.79
2023-02-11T11:53:05.815Z,11.14
2023-02-11T11:54:01.214Z,10.80
2023-02-11T11:54:56.795Z,10.72
2023-02-11T11:55:52.314Z,10.56
2023-02-11T11:56:47.838Z,10.15
2023-02-11T11:57:43.427Z,10.14
2023-02-11T11:58:38.757Z,10.21
2023-02-11T11:59:34.413Z,10.42
2023-02-11T12:00:29.873Z,10.81
2023-02-11T12:01:25.434Z,11.05
2023-02-11T12:02:21.014Z,10.72
2023-02-11T12:03:16.448Z,10.47
2023-02-11T12:04:11.960Z,10.81
2023-02-11T12:05:07.570Z,11.19
2023-02-11T12:06:03.177Z,11.58